createdAt,value
2019-06-07T00:02:19.039Z,13.80
2019-06-07T00:04:48.507Z,13.80
2019-06-07T00:07:21.846Z,13.80
2019-06-07T00:09:49.350Z,13.70
2019-06-07T00:12:21.603Z,13.80
2019-06-07T00:14:49.946Z,13.80
2019-06-07T00:17:20.283Z,13.70
2019-06-07T00:19:50.175Z,13.70
2019-06-07T00:22:32.620Z,13.70
2019-06-07T00:24:51.246Z,13.70
2019-06-07T00:27:22.558Z,13.70
2019-06-07T00:29:51.883Z,13.60
2019-06-07T00:32:22.278Z,13.60
2019-06-07T00:34:51.972Z,13.50
2019-06-07T00:37:25.257Z,13.50
2019-06-07T00:40:13.403Z,13.50
2019-06-07T00:42:25.433Z,13.50
2019-06-07T00:44:55.245Z,13.40
2019-06-07T00:47:25.736Z,13.60
2019-06-07T00:49:55.312Z,13.40
2019-06-07T00:53:11.472Z,13.40
2019-06-07T00:54:57.831Z,13.40
2019-06-07T00:57:31.151Z,13.40
2019-06-07T01:00:03.209Z,13.40
2019-06-07T01:02:32.895Z,13.40
2019-06-07T01:05:05.476Z,13.40
2019-06-07T01:07:34.970Z,13.40
2019-06-07T01:10:51.737Z,13.30
2019-06-07T01:12:57.998Z,13.30
2019-06-07T01:15:30.991Z,13.30
2019-06-07T01:18:33.708Z,13.20
2019-06-07T01:20:32.057Z,13.20
2019-06-07T01:23:01.701Z,13.20
2019-06-07T01:25:34.549Z,13.20
2019-06-07T01:28:05.627Z,13.20
2019-06-07T01:30:35.240Z,13.10
2019-06-07T01:33:07.659Z,13.10
2019-06-07T01:35:37.065Z,13.10
2019-06-07T01:38:06.474Z,13.10
2019-06-07T01:40:35.875Z,13.10
2019-06-07T01:43:05.350Z,13.10
2019-06-07T01:45:34.755Z,13.10
2019-06-07T01:48:04.270Z,13.10
2019-06-07T01:50:33.753Z,13.10
2019-06-07T01:53:05.921Z,13.10
2019-06-07T01:55:37.460Z,13.10
2019-06-07T01:58:06.645Z,13.10
2019-06-07T02:00:36.080Z,13.20
2019-06-07T02:03:05.618Z,13.20
2019-06-07T02:05:35.060Z,13.20
2019-06-07T02:08:04.693Z,13.20
2019-06-07T02:10:38.474Z,13.20
2019-06-07T02:13:07.927Z,13.20
2019-06-07T02:15:37.752Z,13.20
2019-06-07T02:18:07.246Z,13.10
2019-06-07T02:20:36.689Z,13.10
2019-06-07T02:23:06.106Z,13.10
2019-06-07T02:25:43.807Z,13.00
2019-06-07T02:28:30.096Z,13.00
2019-06-07T02:30:47.545Z,12.90
2019-06-07T02:33:09.417Z,12.90
2019-06-07T02:35:40.766Z,12.80
2019-06-07T02:38:10.282Z,12.70
2019-06-07T02:40:40.107Z,12.60
2019-06-07T02:43:09.525Z,12.50
2019-06-07T02:45:43.507Z,12.50
2019-06-07T02:48:10.055Z,12.40
2019-06-07T02:50:42.365Z,12.40
2019-06-07T02:53:11.761Z,12.30
2019-06-07T02:56:33.238Z,12.30
2019-06-07T02:58:13.832Z,12.20
2019-06-07T03:01:06.148Z,12.10
2019-06-07T03:03:18.632Z,12.00
2019-06-07T03:05:48.365Z,12.00
2019-06-07T03:08:18.897Z,11.90
2019-06-07T03:10:50.678Z,11.90
2019-06-07T03:13:23.407Z,11.90
2019-06-07T03:15:54.688Z,11.90
2019-06-07T03:18:42.123Z,11.90
2019-06-07T03:21:16.139Z,11.90
2019-06-07T03:23:47.771Z,11.90
2019-06-07T03:26:18.298Z,11.90
2019-06-07T03:28:48.409Z,11.90
2019-06-07T03:31:19.924Z,12.00
2019-06-07T03:33:53.829Z,12.00
2019-06-07T03:36:25.936Z,12.00
2019-06-07T03:38:54.632Z,12.00
2019-06-07T03:41:29.265Z,12.00
2019-06-07T03:43:57.664Z,12.00
2019-06-07T03:46:27.389Z,12.00
2019-06-07T03:48:58.293Z,12.00
2019-06-07T03:51:28.872Z,12.00
2019-06-07T03:53:59.088Z,12.00
2019-06-07T03:56:33.749Z,12.00
2019-06-07T03:59:03.875Z,12.10
2019-06-07T04:01:34.883Z,12.10
2019-06-07T04:04:04.826Z,12.20
2019-06-07T04:06:36.850Z,12.30
2019-06-07T04:09:07.969Z,12.30
2019-06-07T04:11:39.514Z,12.40
2019-06-07T04:14:08.478Z,12.40
2019-06-07T04:16:41.694Z,12.50
2019-06-07T04:19:08.969Z,12.50
2019-06-07T04:21:42.513Z,12.50
2019-06-07T04:24:09.467Z,12.60
2019-06-07T04:26:43.286Z,12.60
2019-06-07T04:29:33.264Z,12.60
2019-06-07T04:31:47.321Z,12.60
2019-06-07T04:34:16.960Z,12.60
2019-06-07T04:36:58.812Z,12.60
2019-06-07T04:39:21.327Z,12.60
2019-06-07T04:41:54.078Z,12.60
2019-06-07T04:44:25.285Z,12.70
2019-06-07T04:46:57.514Z,12.70
2019-06-07T04:49:27.271Z,12.80
2019-06-07T04:51:57.620Z,12.90
2019-06-07T04:54:27.413Z,13.10
2019-06-07T04:56:56.798Z,13.20
2019-06-07T05:00:07.924Z,13.30
2019-06-07T05:01:57.916Z,13.50
2019-06-07T05:04:28.944Z,13.70
2019-06-07T05:06:58.938Z,13.90
2019-06-07T05:09:30.065Z,14.00
2019-06-07T05:11:59.534Z,14.30
2019-06-07T05:14:32.600Z,14.50
2019-06-07T05:17:00.558Z,14.70
2019-06-07T05:19:30.604Z,14.90
2019-06-07T05:22:04.772Z,15.10
2019-06-07T05:24:37.653Z,15.20
2019-06-07T05:27:02.856Z,15.30
2019-06-07T05:29:36.356Z,15.40
2019-06-07T05:32:04.105Z,15.50
2019-06-07T05:34:34.588Z,15.50
2019-06-07T05:37:11.408Z,15.60
2019-06-07T05:39:38.429Z,15.60
2019-06-07T05:42:06.998Z,15.60
2019-06-07T05:44:36.640Z,15.60
2019-06-07T05:47:09.038Z,15.60
2019-06-07T05:49:43.354Z,15.70
2019-06-07T05:52:09.706Z,15.70
2019-06-07T05:54:40.447Z,15.80
2019-06-07T05:57:10.252Z,15.80
2019-06-07T05:59:41.639Z,15.90
2019-06-07T06:02:22.160Z,15.90
2019-06-07T06:04:45.817Z,16.00
2019-06-07T06:07:13.379Z,16.00
2019-06-07T06:09:43.186Z,16.00
2019-06-07T06:12:33.562Z,16.10
2019-06-07T06:14:47.050Z,16.00
2019-06-07T06:17:16.201Z,16.00
2019-06-07T06:19:49.647Z,16.00
2019-06-07T06:22:16.729Z,15.90
2019-06-07T06:25:16.788Z,15.90
2019-06-07T06:27:55.627Z,15.90
2019-06-07T06:29:50.426Z,16.00
2019-06-07T06:34:53.934Z,16.30
2019-06-07T06:37:22.771Z,16.50
2019-06-07T06:39:52.367Z,16.70
2019-06-07T06:42:21.789Z,16.90
2019-06-07T06:44:53.963Z,17.10
2019-06-07T06:47:22.632Z,17.20
2019-06-07T06:49:54.239Z,17.30
2019-06-07T06:52:23.158Z,17.30
2019-06-07T06:54:59.977Z,17.30
2019-06-07T06:57:23.668Z,17.30
2019-06-07T06:59:53.050Z,17.30
2019-06-07T07:02:22.554Z,17.30
2019-06-07T07:04:53.799Z,17.40
2019-06-07T07:07:23.904Z,17.40
2019-06-07T07:09:58.979Z,17.50
2019-06-07T07:12:24.730Z,17.60
2019-06-07T07:14:55.890Z,17.70
2019-06-07T07:17:46.902Z,17.70
2019-06-07T07:19:56.796Z,17.80
2019-06-07T07:22:26.190Z,18.00
2019-06-07T07:24:55.823Z,18.10
2019-06-07T07:27:25.249Z,18.20
2019-06-07T07:30:31.289Z,18.40
2019-06-07T07:32:25.751Z,18.50
2019-06-07T07:35:00.349Z,18.60
2019-06-07T07:37:26.338Z,18.60
2019-06-07T07:40:08.098Z,18.70
2019-06-07T07:42:26.836Z,18.80
2019-06-07T07:44:56.769Z,18.80
2019-06-07T07:47:26.460Z,18.90
2019-06-07T07:49:58.974Z,19.00
2019-06-07T07:52:26.974Z,19.10
2019-06-07T07:54:58.335Z,19.30
2019-06-07T07:57:28.266Z,19.40
2019-06-07T08:00:25.208Z,19.50
2019-06-07T08:02:28.803Z,19.60
2019-06-07T08:05:25.527Z,19.70
2019-06-07T08:07:53.065Z,19.90
2019-06-07T08:10:21.411Z,20.10
2019-06-07T08:13:09.110Z,20.10
2019-06-07T08:15:22.258Z,20.20
2019-06-07T08:17:57.773Z,20.40
2019-06-07T08:20:23.147Z,20.50
2019-06-07T08:22:53.262Z,20.60
2019-06-07T08:25:26.559Z,20.70
2019-06-07T08:27:57.256Z,20.90
2019-06-07T08:30:50.192Z,21.10
2019-06-07T08:33:23.920Z,21.20
2019-06-07T08:36:03.876Z,21.40
2019-06-07T08:38:25.185Z,21.50
2019-06-07T08:40:32.962Z,21.70
2019-06-07T08:43:18.271Z,21.80
2019-06-07T08:45:33.427Z,22.10
2019-06-07T08:48:13.025Z,22.30
2019-06-07T08:50:34.002Z,22.50
2019-06-07T08:53:12.277Z,22.70
2019-06-07T08:55:37.774Z,22.90
2019-06-07T08:58:08.980Z,23.20
2019-06-07T09:00:47.497Z,23.40
2019-06-07T09:03:09.774Z,23.70
2019-06-07T09:05:39.511Z,23.90
2019-06-07T09:08:28.149Z,24.20
2019-06-07T09:10:40.133Z,24.30
2019-06-07T09:13:11.650Z,24.50
2019-06-07T09:15:40.958Z,24.60
2019-06-07T09:18:38.403Z,24.70
2019-06-07T09:20:45.648Z,24.90
2019-06-07T09:23:17.415Z,25.20
2019-06-07T09:25:57.286Z,25.30
2019-06-07T09:28:20.272Z,25.50
2019-06-07T09:30:50.407Z,25.60
2019-06-07T09:33:20.075Z,25.70
2019-06-07T09:35:49.467Z,25.80
2019-06-07T09:38:25.676Z,25.80
2019-06-07T09:40:50.207Z,25.90
2019-06-07T09:43:59.970Z,25.80
2019-06-07T09:45:51.014Z,25.90
2019-06-07T09:49:07.039Z,26.00
2019-06-07T09:50:51.563Z,26.10
2019-06-07T09:53:23.277Z,26.20
2019-06-07T09:55:52.084Z,26.10
2019-06-07T10:00:52.849Z,26.10
2019-06-07T10:03:22.875Z,26.00
2019-06-07T10:05:53.226Z,26.00
2019-06-07T10:09:42.348Z,26.00
2019-06-07T10:10:53.800Z,26.00
2019-06-07T10:13:23.705Z,26.10
2019-06-07T10:15:53.780Z,26.00
2019-06-07T10:18:23.153Z,26.00
2019-06-07T10:20:52.533Z,26.00
2019-06-07T10:23:21.928Z,26.00
2019-06-07T10:25:51.304Z,26.00
2019-06-07T10:28:20.695Z,25.90
2019-06-07T10:30:50.109Z,26.00
2019-06-07T10:33:19.910Z,25.90
2019-06-07T10:35:49.701Z,25.80
2019-06-07T10:38:19.080Z,25.80
2019-06-07T10:40:48.456Z,25.60
2019-06-07T10:43:17.855Z,25.50
2019-06-07T10:45:47.577Z,25.40
2019-06-07T10:48:16.954Z,25.30
2019-06-07T10:50:46.343Z,25.20
2019-06-07T10:53:15.724Z,25.20
2019-06-07T10:55:45.117Z,25.10
2019-06-07T10:58:14.769Z,25.00
2019-06-07T11:00:44.480Z,24.90
2019-06-07T11:03:14.333Z,24.80
2019-06-07T11:05:44.241Z,24.80
2019-06-07T11:08:14.999Z,24.70
2019-06-07T11:10:44.431Z,24.60
2019-06-07T11:13:14.450Z,24.60
2019-06-07T11:15:44.037Z,24.70
2019-06-07T11:18:14.408Z,24.60
2019-06-07T11:20:44.619Z,24.70
2019-06-07T11:23:14.324Z,24.70
2019-06-07T11:25:43.794Z,24.70
2019-06-07T11:28:14.700Z,24.70
2019-06-07T11:30:44.427Z,24.70
2019-06-07T11:33:16.351Z,24.80
2019-06-07T11:35:45.254Z,24.80
2019-06-07T11:38:14.749Z,24.90
2019-06-07T11:40:44.375Z,24.90
2019-06-07T11:43:14.939Z,24.90
2019-06-07T11:45:44.611Z,25.00
2019-06-07T11:48:15.529Z,25.00
2019-06-07T11:50:45.002Z,25.10
2019-06-07T11:53:15.240Z,25.30
2019-06-07T11:55:45.371Z,25.50
2019-06-07T11:58:19.726Z,25.60
2019-06-07T12:00:46.326Z,25.80
2019-06-07T12:03:15.955Z,26.10
2019-06-07T12:05:45.515Z,26.30
2019-06-07T12:08:16.035Z,26.60
2019-06-07T12:10:45.753Z,26.90
2019-06-07T12:13:17.446Z,27.10
2019-06-07T12:15:49.183Z,27.40
2019-06-07T12:18:19.652Z,27.50
2019-06-07T12:20:49.168Z,27.70
2019-06-07T12:23:20.168Z,27.90
2019-06-07T12:25:49.675Z,28.00
2019-06-07T12:28:19.056Z,28.20
2019-06-07T12:30:48.506Z,28.40
2019-06-07T12:33:19.575Z,28.50
2019-06-07T12:35:49.247Z,28.60
2019-06-07T12:38:20.977Z,28.80
2019-06-07T12:40:57.615Z,28.80
2019-06-07T12:43:23.247Z,28.90
2019-06-07T12:45:52.849Z,29.00
2019-06-07T12:48:25.577Z,29.00
2019-06-07T12:50:53.416Z,29.10
2019-06-07T12:53:26.444Z,29.10
2019-06-07T12:55:54.304Z,29.00
2019-06-07T12:58:32.647Z,29.00
2019-06-07T13:00:55.006Z,29.00
2019-06-07T13:03:24.685Z,29.00
2019-06-07T13:05:54.114Z,29.00
2019-06-07T13:08:23.975Z,29.00
2019-06-07T13:10:53.560Z,29.00
2019-06-07T13:13:24.455Z,29.00
2019-06-07T13:15:54.011Z,28.90
2019-06-07T13:18:25.163Z,29.00
2019-06-07T13:20:55.644Z,28.90
2019-06-07T13:23:25.205Z,28.90
2019-06-07T13:25:54.872Z,28.80
2019-06-07T13:28:24.758Z,28.70
2019-06-07T13:30:54.600Z,28.60
2019-06-07T13:33:26.284Z,28.50
2019-06-07T13:35:55.628Z,28.40
2019-06-07T13:38:26.053Z,28.30
2019-06-07T13:40:56.665Z,28.20
2019-06-07T13:43:26.172Z,28.10
2019-06-07T13:45:55.529Z,28.00
2019-06-07T13:48:25.336Z,27.80
2019-06-07T13:50:54.803Z,27.70
2019-06-07T13:53:25.047Z,27.60
2019-06-07T13:55:54.525Z,27.60
2019-06-07T13:58:24.245Z,27.40
2019-06-07T14:00:53.678Z,27.40
2019-06-07T14:03:28.372Z,27.40
2019-06-07T14:05:54.219Z,27.30
2019-06-07T14:08:23.609Z,27.20
2019-06-07T14:10:53.273Z,27.10
2019-06-07T14:13:23.629Z,27.00
2019-06-07T14:15:53.012Z,27.00
2019-06-07T14:18:22.578Z,26.80
2019-06-07T14:20:52.075Z,26.80
2019-06-07T14:23:39.046Z,26.70
2019-06-07T14:25:53.348Z,26.70
2019-06-07T14:28:26.428Z,26.60
2019-06-07T14:30:53.892Z,26.60
2019-06-07T14:33:26.111Z,26.50
2019-06-07T14:35:55.390Z,26.30
2019-06-07T14:38:27.321Z,26.10
2019-06-07T14:40:56.875Z,25.90
2019-06-07T14:43:27.577Z,25.70
2019-06-07T14:45:57.053Z,25.50
2019-06-07T14:48:27.897Z,25.20
2019-06-07T14:50:57.355Z,25.00
2019-06-07T14:53:26.777Z,24.80
2019-06-07T14:55:56.152Z,24.60
2019-06-07T14:58:27.066Z,24.40
2019-06-07T15:00:56.566Z,24.20
2019-06-07T15:03:26.397Z,24.00
2019-06-07T15:05:55.924Z,23.80
2019-06-07T15:08:26.461Z,23.70
2019-06-07T15:10:56.308Z,23.60
2019-06-07T15:13:27.284Z,23.50
2019-06-07T15:15:56.845Z,23.40
2019-06-07T15:18:27.629Z,23.40
2019-06-07T15:20:57.063Z,23.30
2019-06-07T15:23:27.130Z,23.30
2019-06-07T15:25:56.909Z,23.20
2019-06-07T15:28:27.675Z,23.00
2019-06-07T15:30:57.368Z,22.90
2019-06-07T15:33:27.848Z,22.70
2019-06-07T15:35:57.326Z,22.50
2019-06-07T15:38:26.707Z,22.40
2019-06-07T15:40:56.373Z,22.20
2019-06-07T15:43:25.886Z,22.10
2019-06-07T15:45:56.069Z,21.90
2019-06-07T15:48:26.189Z,21.80
2019-06-07T15:50:56.199Z,21.70
2019-06-07T15:53:26.386Z,21.70
2019-06-07T15:55:56.492Z,21.70
2019-06-07T15:58:26.492Z,21.60
2019-06-07T16:00:56.709Z,21.50
2019-06-07T16:03:26.782Z,21.40
2019-06-07T16:05:56.751Z,21.30
2019-06-07T16:08:27.335Z,21.30
2019-06-07T16:10:57.314Z,21.20
2019-06-07T16:13:27.221Z,21.10
2019-06-07T16:15:57.375Z,21.10
2019-06-07T16:18:27.544Z,21.00
2019-06-07T16:20:57.761Z,21.00
2019-06-07T16:23:28.142Z,20.90
2019-06-07T16:25:57.951Z,20.80
2019-06-07T16:28:28.210Z,20.60
2019-06-07T16:30:58.266Z,20.60
2019-06-07T16:33:28.449Z,20.50
2019-06-07T16:35:58.437Z,20.40
2019-06-07T16:38:28.867Z,20.40
2019-06-07T16:40:58.930Z,20.30
2019-06-07T16:43:29.623Z,20.30
2019-06-07T16:45:59.553Z,20.30
2019-06-07T16:48:29.783Z,20.20
2019-06-07T16:50:59.588Z,20.10
2019-06-07T16:53:29.908Z,20.10
2019-06-07T16:55:59.466Z,20.10
2019-06-07T16:58:29.582Z,20.00
2019-06-07T17:00:59.602Z,19.90
2019-06-07T17:03:29.874Z,19.90
2019-06-07T17:05:59.863Z,19.90
2019-06-07T17:08:29.868Z,19.80
2019-06-07T17:11:00.080Z,19.70
2019-06-07T17:13:33.334Z,19.60
2019-06-07T17:16:01.027Z,19.50
2019-06-07T17:18:30.457Z,19.30
2019-06-07T17:21:00.467Z,19.20
2019-06-07T17:23:30.469Z,19.00
2019-06-07T17:26:00.488Z,18.90
2019-06-07T17:28:30.684Z,18.80
2019-06-07T17:31:01.164Z,18.70
2019-06-07T17:33:31.003Z,18.60
2019-06-07T17:36:01.076Z,18.50
2019-06-07T17:38:31.245Z,18.50
2019-06-07T17:41:01.412Z,18.50
2019-06-07T17:43:31.549Z,18.50
2019-06-07T17:46:01.593Z,18.50
2019-06-07T17:48:31.593Z,18.50
2019-06-07T17:51:02.159Z,18.50
2019-06-07T17:53:31.905Z,18.60
2019-06-07T17:56:02.026Z,18.60
2019-06-07T17:58:32.315Z,18.60
2019-06-07T18:01:02.354Z,18.60
2019-06-07T18:03:33.421Z,18.70
2019-06-07T18:06:04.264Z,18.70
2019-06-07T18:08:35.073Z,18.70
2019-06-07T18:11:04.461Z,18.80
2019-06-07T18:13:33.874Z,18.80
2019-06-07T18:16:03.578Z,18.80
2019-06-07T18:18:33.011Z,18.80
2019-06-07T18:21:03.045Z,18.70
2019-06-07T18:23:33.327Z,18.70
2019-06-07T18:26:03.580Z,18.70
2019-06-07T18:28:36.623Z,18.60
2019-06-07T18:31:06.123Z,18.60
2019-06-07T18:33:35.585Z,18.50
2019-06-07T18:36:05.671Z,18.50
2019-06-07T18:38:37.705Z,18.50
2019-06-07T18:41:08.164Z,18.40
2019-06-07T18:43:37.950Z,18.40
2019-06-07T18:46:08.962Z,18.40
2019-06-07T18:48:38.327Z,18.30
2019-06-07T18:51:08.294Z,18.40
2019-06-07T18:53:37.739Z,18.40
2019-06-07T18:56:07.190Z,18.40
2019-06-07T18:58:38.140Z,18.30
2019-06-07T19:01:09.414Z,18.40
2019-06-07T19:03:38.844Z,18.40
2019-06-07T19:06:08.275Z,18.40
2019-06-07T19:08:37.779Z,18.40
2019-06-07T19:11:07.261Z,18.30
2019-06-07T19:13:38.225Z,18.30
2019-06-07T19:16:08.701Z,18.20
2019-06-07T19:18:39.455Z,18.20
2019-06-07T19:21:10.463Z,18.20
2019-06-07T19:23:44.922Z,18.20
2019-06-07T19:26:19.414Z,18.20
2019-06-07T19:28:50.693Z,18.10
2019-06-07T19:31:20.283Z,18.20
2019-06-07T19:33:51.060Z,18.10
2019-06-07T19:36:25.096Z,18.20
2019-06-07T19:38:55.603Z,18.20
2019-06-07T19:41:25.561Z,18.20
2019-06-07T19:43:56.128Z,18.20
2019-06-07T19:46:27.212Z,18.30
2019-06-07T19:48:56.654Z,18.20
2019-06-07T19:51:26.053Z,18.20
2019-06-07T19:53:57.160Z,18.20
2019-06-07T19:56:27.573Z,18.20
2019-06-07T19:58:57.633Z,18.20
2019-06-07T20:01:27.373Z,18.20
2019-06-07T20:03:57.977Z,18.10
2019-06-07T20:06:27.556Z,18.10
2019-06-07T20:08:58.738Z,18.10
2019-06-07T20:11:29.832Z,18.10
2019-06-07T20:14:03.050Z,18.10
2019-06-07T20:16:34.236Z,18.10
2019-06-07T20:19:05.523Z,18.10
2019-06-07T20:21:34.801Z,18.10
2019-06-07T20:24:22.474Z,18.00
2019-06-07T20:26:35.472Z,18.00
2019-06-07T20:29:05.747Z,18.00
2019-06-07T20:31:42.601Z,17.90
2019-06-07T20:34:12.071Z,17.90
2019-06-07T20:36:45.954Z,17.90
2019-06-07T20:39:15.649Z,17.90
2019-06-07T20:41:45.152Z,17.90
2019-06-07T20:44:15.180Z,17.80
2019-06-07T20:46:45.239Z,17.80
2019-06-07T20:49:15.089Z,17.80
2019-06-07T20:51:45.210Z,17.80
2019-06-07T20:54:15.302Z,17.80
2019-06-07T20:56:45.708Z,17.70
2019-06-07T20:59:19.162Z,17.70
2019-06-07T21:01:48.318Z,17.70
2019-06-07T21:04:23.641Z,17.70
2019-06-07T21:06:53.130Z,17.70
2019-06-07T21:09:24.131Z,17.70
2019-06-07T21:11:55.308Z,17.60
2019-06-07T21:14:26.853Z,17.60
2019-06-07T21:16:59.749Z,17.60
2019-06-07T21:19:32.216Z,17.60
2019-06-07T21:22:02.372Z,17.60
2019-06-07T21:24:31.914Z,17.60
2019-06-07T21:27:01.758Z,17.60
2019-06-07T21:29:32.430Z,17.60
2019-06-07T21:32:03.214Z,17.60
2019-06-07T21:34:33.136Z,17.60
2019-06-07T21:37:03.820Z,17.60
2019-06-07T21:39:33.319Z,17.60
2019-06-07T21:42:04.114Z,17.50
2019-06-07T21:44:33.759Z,17.60
2019-06-07T21:47:04.200Z,17.60
2019-06-07T21:49:33.813Z,17.60
2019-06-07T21:52:04.919Z,17.60
2019-06-07T21:54:34.328Z,17.60
2019-06-07T21:57:06.928Z,17.70
2019-06-07T21:59:36.404Z,17.70
2019-06-07T22:02:07.440Z,17.80
2019-06-07T22:04:37.384Z,17.80
2019-06-07T22:07:07.877Z,17.80
2019-06-07T22:09:37.415Z,17.80
2019-06-07T22:12:08.396Z,17.90
2019-06-07T22:14:38.067Z,17.90
2019-06-07T22:17:08.245Z,17.90
2019-06-07T22:19:37.895Z,17.90
2019-06-07T22:22:07.867Z,17.90
2019-06-07T22:24:38.672Z,17.90
2019-06-07T22:27:09.135Z,17.90
2019-06-07T22:29:38.668Z,17.90
2019-06-07T22:32:08.777Z,17.90
2019-06-07T22:34:38.552Z,17.90
2019-06-07T22:37:09.602Z,17.90
2019-06-07T22:39:39.117Z,17.80
2019-06-07T22:42:08.961Z,17.80
2019-06-07T22:44:40.109Z,17.80
2019-06-07T22:47:09.972Z,17.80
2019-06-07T22:49:40.984Z,17.80
2019-06-07T22:52:14.134Z,17.80
2019-06-07T22:54:43.493Z,17.80
2019-06-07T22:57:14.542Z,17.70
2019-06-07T22:59:43.986Z,17.70
2019-06-07T23:02:14.599Z,17.70
2019-06-07T23:04:44.230Z,17.60
2019-06-07T23:07:14.882Z,17.70
2019-06-07T23:09:44.679Z,17.60
2019-06-07T23:12:15.749Z,17.60
2019-06-07T23:14:45.145Z,17.60
2019-06-07T23:17:15.758Z,17.60
2019-06-07T23:19:45.221Z,17.60
2019-06-07T23:22:16.260Z,17.50
2019-06-07T23:24:45.810Z,17.50
2019-06-07T23:27:16.426Z,17.50
2019-06-07T23:29:49.551Z,17.50
2019-06-07T23:32:20.162Z,17.40
2019-06-07T23:34:50.136Z,17.50
2019-06-07T23:37:19.656Z,17.40
2019-06-07T23:39:51.249Z,17.40
2019-06-07T23:42:39.959Z,17.40
2019-06-07T23:45:09.477Z,17.60
2019-06-07T23:47:38.864Z,17.40
2019-06-07T23:50:08.691Z,17.40
2019-06-07T23:52:38.083Z,17.30
2019-06-07T23:55:11.793Z,17.30
2019-06-07T23:57:41.307Z,17.30
